ADDS METAR Data INFO
IDs: Format: Raw Decoded Include TAF

Data at: 0136 UTC 20 Feb 2018

KIMS 200115Z AUTO 18008G16KT 10SM CLR 19/10 A3009 RMK AO1
KIMS 200055Z AUTO 18011G15KT 10SM CLR 19/11 A3009 RMK AO1
KIMS 200035Z AUTO 18011KT 10SM CLR 19/11 A3009 RMK AO1
KIMS 200015Z AUTO 19010KT 10SM CLR 20/11 A3008 RMK AO1
KIMS 192355Z AUTO 18008KT 10SM CLR 20/11 A3008 RMK AO1
KIMS 192335Z AUTO 18012G16KT 10SM CLR 20/11 A3008 RMK AO1
KIMS 192315Z AUTO 19012G16KT 10SM SCT060 21/11 A3008 RMK AO1
KIMS 192255Z AUTO 19010G16KT 10SM BKN060 BKN070 21/11 A3007 RMK AO1
KIMS 192235Z AUTO 20011KT 10SM SCT049 BKN060 OVC080 21/11 A3007 RMK AO1
KIMS 192215Z AUTO 19007KT 10SM SCT060 OVC070 21/12 A3006 RMK AO1
KIMS 192155Z AUTO 20012G19KT 10SM BKN070 BKN080 22/12 A3005 RMK AO1
KIMS 192135Z AUTO 19011G22KT 10SM BKN055 BKN080 22/12 A3005 RMK AO1
KIMS 192115Z AUTO 21016G23KT 10SM SCT049 BKN055 22/12 A3005 RMK AO1
KIMS 192055Z AUTO 21010KT 10SM SCT048 BKN060 OVC080 22/12 A3005 RMK AO1
KIMS 192035Z AUTO 19012KT 10SM SCT049 BKN060 BKN080 22/13 A3004 RMK AO1
KIMS 192015Z AUTO 19012G15KT 10SM SCT049 BKN060 BKN080 23/13 A3005 RMK AO1
KIMS 191955Z AUTO 22025G30KT 10SM SCT050 BKN080 22/11 A3005 RMK AO1
KIMS 191935Z AUTO 21019G24KT 10SM SCT049 BKN080 22/12 A3005 RMK AO1
KIMS 191915Z AUTO 20014G22KT 10SM SCT043 SCT049 SCT080 23/12 A3005 RMK AO1
KIMS 191855Z AUTO 20018G27KT 10SM SCT047 SCT070 22/12 A3006 RMK AO1
KIMS 191835Z AUTO 21018G29KT 10SM SCT041 SCT049 SCT070 21/12 A3007 RMK AO1
KIMS 191815Z AUTO 21011G26KT 10SM BKN041 BKN049 21/12 A3007 RMK AO1
KIMS 191755Z AUTO 22014KT 10SM BKN038 BKN044 21/13 A3008 RMK AO1
KIMS 191735Z AUTO 21006G10KT 10SM BKN036 21/13 A3008 RMK AO1
KIMS 191715Z AUTO 21010G18KT 10SM BKN031 BKN037 20/13 A3009 RMK AO1
KIMS 191655Z AUTO 21011G20KT 10SM BKN027 BKN037 21/14 A3008 RMK AO1
KIMS 191635Z AUTO 21011G19KT 10SM BKN023 BKN030 20/14 A3008 RMK AO1
KIMS 191615Z AUTO 19011G19KT 10SM OVC021 18/13 A3008 RMK AO1
KIMS 191555Z AUTO 20010G19KT 10SM OVC021 18/14 A3008 RMK AO1
KIMS 191535Z AUTO 19014G20KT 10SM OVC021 17/13 A3008 RMK AO1
KIMS 191515Z AUTO 19013G19KT 10SM OVC017 17/13 A3008 RMK AO1
KIMS 191455Z AUTO 18010G15KT 10SM OVC017 16/13 A3008 RMK AO1
KIMS 191435Z AUTO 19010G17KT 10SM OVC015 16/13 A3008 RMK AO1
KIMS 191415Z AUTO 18014G18KT 10SM OVC013 15/12 A3008 RMK AO1
KIMS 191355Z AUTO 18012G16KT 10SM OVC013 15/12 A3009 RMK AO1
KIMS 191335Z AUTO 18012KT 10SM OVC013 14/12 A3009 RMK AO1
KIMS 191315Z AUTO 19011G14KT 10SM OVC011 14/12 A3009 RMK AO1
KIMS 191255Z AUTO 18009KT 10SM OVC011 14/12 A3008 RMK AO1
KIMS 191235Z AUTO 19014G18KT 10SM OVC013 13/11 A3008 RMK AO1
KIMS 191215Z AUTO 19011KT 10SM BKN013 OVC017 13/11 A3008 RMK AO1
KIMS 191155Z AUTO 19010G16KT 10SM OVC013 13/11 A3007 RMK AO1
KIMS 191135Z AUTO 19011G16KT 10SM OVC013 13/10 A3007 RMK AO1
KIMS 191115Z AUTO 19009KT 10SM OVC013 12/10 A3007 RMK AO1
KIMS 191055Z AUTO 18010G15KT 10SM OVC015 12/09 A3007 RMK AO1
KIMS 191035Z AUTO 18009KT 10SM OVC015 11/08 A3007 RMK AO1
KIMS 191015Z AUTO 19010KT 10SM OVC013 11/08 A3008 RMK AO1
KIMS 190955Z AUTO 18010KT 10SM OVC013 11/07 A3008 RMK AO1
KIMS 190935Z AUTO 19010KT 10SM OVC013 11/07 A3008 RMK AO1
KIMS 190915Z AUTO 19011KT 10SM OVC015 11/06 A3008 RMK AO1
KIMS 190855Z AUTO 20011G16KT 10SM OVC015 11/05 A3008 RMK AO1
KIMS 190835Z AUTO 18009KT 10SM OVC017 11/05 A3008 RMK AO1
KIMS 190815Z AUTO 19010KT 10SM OVC017 11/05 A3008 RMK AO1
KIMS 190755Z AUTO 19009KT 10SM OVC019 11/05 A3008 RMK AO1
KIMS 190735Z AUTO 17006KT 10SM OVC019 10/02 A3009 RMK AO1
KIMS 190715Z AUTO 16006KT 10SM OVC019 08/01 A3008 RMK AO1
KIMS 190655Z AUTO 15004KT 10SM OVC021 08/01 A3008 RMK AO1
KIMS 190635Z AUTO 15004KT 10SM OVC026 08/00 A3008 RMK AO1
KIMS 190615Z AUTO 14004KT 10SM OVC028 07/00 A3008 RMK AO1
KIMS 190555Z AUTO 12005KT 10SM OVC032 07/00 A3008 RMK AO1
KIMS 190535Z AUTO 13004KT 10SM BKN034 BKN039 BKN050 07/00 A3009 RMK AO1
KIMS 190515Z AUTO 11006KT 10SM SCT039 BKN050 06/00 A3008 RMK AO1
KIMS 190455Z AUTO 11007KT 10SM SCT060 06/00 A3009 RMK AO1
KIMS 190435Z AUTO 11006KT 10SM OVC060 07/00 A3010 RMK AO1
KIMS 190415Z AUTO 11004KT 10SM BKN060 OVC080 07/00 A3011 RMK AO1
KIMS 190355Z AUTO 12005KT 10SM BKN070 06/00 A3012 RMK AO1
KIMS 190335Z AUTO 11003KT 10SM OVC080 06/00 A3013 RMK AO1
KIMS 190315Z AUTO 12004KT 10SM BKN080 06/00 A3013 RMK AO1
KIMS 190255Z AUTO 11006KT 10SM CLR 06/00 A3013 RMK AO1
KIMS 190235Z AUTO 11007KT 10SM CLR 06/00 A3013 RMK AO1
KIMS 190215Z AUTO 11006KT 10SM CLR 06/00 A3014 RMK AO1
KIMS 190155Z AUTO 12005KT 10SM CLR 06/00 A3015 RMK AO1
KIMS 190135Z AUTO 11005KT 10SM CLR 06/00 A3015 RMK AO1
KIMS 190115Z AUTO 11004KT 10SM CLR 06/00 A3015 RMK AO1
KIMS 190055Z AUTO 12006KT 10SM CLR 07/00 A3018 RMK AO1
KIMS 190035Z AUTO 12006KT 10SM CLR 07/00 A3017 RMK AO1
KIMS 190015Z AUTO 11005KT 10SM CLR 07/00 A3018 RMK AO1
KIMS 182355Z AUTO 12005KT 10SM CLR 07/00 A3018 RMK AO1
KIMS 182335Z AUTO 11004KT 10SM CLR 07/00 A3019 RMK AO1
KIMS 182315Z AUTO 12005KT 10SM CLR 07/00 A3019 RMK AO1
KIMS 182255Z AUTO 12005KT 10SM CLR 08/00 A3020 RMK AO1
KIMS 182235Z AUTO 12007KT 10SM CLR 08/00 A3020 RMK AO1
KIMS 182215Z AUTO 15005KT 10SM CLR 08/00 A3020 RMK AO1
KIMS 182155Z AUTO 14006KT 10SM CLR 08/00 A3020 RMK AO1
KIMS 182135Z AUTO 15007KT 10SM CLR 08/00 A3021 RMK AO1
KIMS 182115Z AUTO 14006KT 10SM CLR 08/00 A3023 RMK AO1
KIMS 182055Z AUTO 13008KT 10SM CLR 08/00 A3023 RMK AO1
KIMS 182035Z AUTO 16008G15KT 10SM CLR 09/00 A3024 RMK AO1
KIMS 182015Z AUTO 16008KT 10SM CLR 09/00 A3024 RMK AO1
KIMS 181955Z AUTO 12006KT 10SM CLR 09/00 A3025 RMK AO1
KIMS 181935Z AUTO 10006KT 10SM CLR 08/00 A3027 RMK AO1
KIMS 181915Z AUTO 13006KT 10SM CLR 08/00 A3028 RMK AO1
KIMS 181855Z AUTO 12006KT 10SM CLR 08/00 A3028 RMK AO1
KIMS 181835Z AUTO 11005KT 10SM CLR 07/00 A3029 RMK AO1
KIMS 181815Z AUTO 10008KT 10SM CLR 07/01 A3030 RMK AO1
KIMS 181755Z AUTO 09006KT 10SM CLR 06/00 A3033 RMK AO1
KIMS 181735Z AUTO 12007KT 10SM CLR 05/00 A3034 RMK AO1
KIMS 181715Z AUTO 10003KT 10SM CLR 05/00 A3034 RMK AO1
KIMS 181655Z AUTO 09004KT 10SM SCT015 05/00 A3035 RMK AO1
KIMS 181635Z AUTO 11005KT 10SM SCT014 04/00 A3036 RMK AO1
KIMS 181615Z AUTO 09003KT 10SM SCT014 03/00 A3037 RMK AO1
KIMS 181555Z AUTO 16004KT 10SM CLR 03/00 A3037 RMK AO1
KIMS 181535Z AUTO 11004KT 10SM CLR 02/M01 A3038 RMK AO1
KIMS 181515Z AUTO 00000KT 10SM CLR 02/00 A3038 RMK AO1
KIMS 181455Z AUTO 07003KT 10SM SCT011 01/00 A3038 RMK AO1
KIMS 181435Z AUTO 00000KT 7SM CLR 01/00 A3038 RMK AO1
KIMS 181415Z AUTO 00000KT 5SM SCT015 00/00 A3037 RMK AO1
KIMS 181355Z AUTO 00000KT 1 3/4SM OVC015 00/00 A3038 RMK AO1